createdAt,value
2019-02-27T00:01:16.766Z,20.27
2019-02-27T00:03:44.612Z,20.12
2019-02-27T00:06:15.865Z,23.42
2019-02-27T00:08:44.453Z,20.52
2019-02-27T00:11:13.484Z,18.12
2019-02-27T00:13:48.454Z,20.00
2019-02-27T00:16:17.581Z,22.48
2019-02-27T00:18:46.669Z,19.02
2019-02-27T00:21:23.588Z,18.67
2019-02-27T00:23:56.650Z,19.12
2019-02-27T00:26:24.320Z,25.00
2019-02-27T00:28:56.238Z,17.75
2019-02-27T00:31:26.129Z,23.73
2019-02-27T00:34:07.153Z,19.48
2019-02-27T00:36:38.036Z,22.15
2019-02-27T00:39:07.913Z,20.50
2019-02-27T00:41:37.901Z,22.30
2019-02-27T00:44:07.006Z,20.85
2019-02-27T00:46:35.936Z,20.20
2019-02-27T00:49:14.001Z,23.45
2019-02-27T00:51:46.001Z,22.22
2019-02-27T00:54:15.008Z,24.65
2019-02-27T00:56:47.074Z,24.27
2019-02-27T00:59:20.054Z,21.75
2019-02-27T01:01:50.103Z,27.10
2019-02-27T01:04:24.146Z,27.70
2019-02-27T01:06:58.190Z,23.98
2019-02-27T01:09:29.133Z,23.32
2019-02-27T01:12:13.151Z,25.43
2019-02-27T01:14:42.124Z,31.15
2019-02-27T01:17:13.057Z,25.37
2019-02-27T01:19:43.064Z,27.27
2019-02-27T01:22:13.506Z,24.72
2019-02-27T01:24:43.708Z,24.82
2019-02-27T01:27:12.741Z,25.05
2019-02-27T01:29:43.605Z,22.90
2019-02-27T01:32:14.585Z,26.42
2019-02-27T01:34:44.540Z,24.50
2019-02-27T01:37:35.850Z,25.17
2019-02-27T01:40:09.229Z,23.05
2019-02-27T01:42:47.350Z,25.95
2019-02-27T01:45:20.567Z,24.75
2019-02-27T01:47:47.997Z,20.10
2019-02-27T01:50:33.121Z,22.13
2019-02-27T01:53:02.177Z,22.32
2019-02-27T01:55:32.229Z,19.40
2019-02-27T01:58:12.406Z,18.15
2019-02-27T02:00:49.382Z,19.67
2019-02-27T02:03:18.490Z,23.02
2019-02-27T02:05:49.741Z,17.70
2019-02-27T02:08:18.795Z,19.50
2019-02-27T02:10:50.792Z,20.05
2019-02-27T02:13:53.156Z,22.02
2019-02-27T02:16:47.594Z,26.12
2019-02-27T02:19:42.469Z,26.07
2019-02-27T02:22:43.336Z,22.80
2019-02-27T02:25:34.504Z,18.77
2019-02-27T02:29:03.932Z,19.35
2019-02-27T02:31:43.318Z,19.30
2019-02-27T02:34:51.573Z,19.32
2019-02-27T02:38:12.414Z,22.95
2019-02-27T02:41:07.927Z,21.07
2019-02-27T02:44:13.814Z,26.02
2019-02-27T02:47:19.754Z,25.02
2019-02-27T02:50:07.335Z,21.48
2019-02-27T02:53:17.527Z,20.43
2019-02-27T02:56:24.888Z,22.85
2019-02-27T02:59:34.677Z,25.15
2019-02-27T03:02:47.810Z,29.87
2019-02-27T03:06:09.740Z,25.65
2019-02-27T03:08:55.000Z,22.25
2019-02-27T03:12:31.554Z,24.55
2019-02-27T03:15:16.902Z,24.23
2019-02-27T03:18:40.861Z,25.02
2019-02-27T03:21:20.965Z,23.62
2019-02-27T03:24:30.977Z,23.22
2019-02-27T03:27:09.880Z,24.70
2019-02-27T03:30:36.839Z,21.02
2019-02-27T03:33:45.901Z,22.67
2019-02-27T03:36:36.074Z,21.15
2019-02-27T03:39:55.134Z,22.02
2019-02-27T03:42:50.049Z,20.97
2019-02-27T03:45:54.479Z,23.42
2019-02-27T03:49:06.852Z,25.40
2019-02-27T03:52:38.905Z,25.27
2019-02-27T03:55:45.696Z,20.80
2019-02-27T03:58:52.771Z,26.12
2019-02-27T04:02:09.566Z,18.67
2019-02-27T04:04:54.761Z,24.20
2019-02-27T04:08:08.595Z,25.12
2019-02-27T04:10:51.683Z,24.18
2019-02-27T04:13:26.829Z,27.67
2019-02-27T04:15:53.673Z,29.15
2019-02-27T04:18:20.708Z,23.25
2019-02-27T04:20:50.694Z,23.80
2019-02-27T04:23:30.825Z,22.17
2019-02-27T04:26:05.914Z,23.02
2019-02-27T04:28:34.526Z,25.23
2019-02-27T04:31:03.583Z,22.40
2019-02-27T04:33:32.811Z,24.95
2019-02-27T04:36:13.474Z,27.90
2019-02-27T04:38:56.866Z,31.48
2019-02-27T04:41:29.291Z,25.90
2019-02-27T04:44:10.757Z,28.10
2019-02-27T04:46:39.795Z,26.35
2019-02-27T04:49:17.798Z,27.93
2019-02-27T04:51:50.594Z,32.60
2019-02-27T04:54:25.553Z,28.75
2019-02-27T04:56:55.038Z,27.65
2019-02-27T04:59:25.417Z,23.50
2019-02-27T05:01:54.453Z,24.40
2019-02-27T05:04:24.622Z,25.37
2019-02-27T05:06:56.998Z,26.30
2019-02-27T05:09:27.105Z,22.52
2019-02-27T05:11:56.149Z,24.95
2019-02-27T05:14:27.453Z,25.35
2019-02-27T05:16:55.786Z,29.72
2019-02-27T05:19:24.714Z,27.85
2019-02-27T05:21:53.640Z,24.95
2019-02-27T05:24:22.648Z,32.20
2019-02-27T05:26:51.573Z,30.05
2019-02-27T05:29:20.621Z,31.77
2019-02-27T05:31:50.179Z,26.57
2019-02-27T05:34:20.072Z,30.08
2019-02-27T05:36:48.997Z,29.02
2019-02-27T05:39:18.082Z,26.40
2019-02-27T05:41:47.138Z,29.23
2019-02-27T05:44:16.245Z,27.20
2019-02-27T05:46:45.127Z,27.22
2019-02-27T05:49:14.360Z,24.10
2019-02-27T05:51:43.208Z,28.80
2019-02-27T05:54:12.186Z,23.65
2019-02-27T05:56:41.155Z,24.77
2019-02-27T05:59:10.080Z,23.22
2019-02-27T06:01:39.155Z,25.90
2019-02-27T06:04:08.273Z,26.97
2019-02-27T06:06:37.621Z,24.05
2019-02-27T06:09:09.931Z,26.70
2019-02-27T06:11:38.308Z,25.27
2019-02-27T06:14:07.241Z,28.17
2019-02-27T06:16:37.608Z,28.38
2019-02-27T06:19:07.180Z,25.40
2019-02-27T06:21:36.125Z,26.42
2019-02-27T06:24:06.374Z,21.68
2019-02-27T06:26:40.533Z,23.38
2019-02-27T06:29:09.505Z,23.45
2019-02-27T06:31:39.546Z,31.90
2019-02-27T06:34:08.562Z,23.87
2019-02-27T06:36:41.888Z,21.65
2019-02-27T06:39:09.186Z,23.32
2019-02-27T06:41:39.877Z,24.25
2019-02-27T06:44:11.199Z,23.90
2019-02-27T06:46:54.727Z,20.77
2019-02-27T06:50:02.949Z,23.20
2019-02-27T06:52:34.830Z,19.42
2019-02-27T06:55:05.848Z,16.85
2019-02-27T06:57:35.090Z,19.15
2019-02-27T07:00:35.751Z,21.60
2019-02-27T07:03:07.524Z,20.85
2019-02-27T07:05:37.906Z,22.10
2019-02-27T07:08:07.541Z,22.60
2019-02-27T07:10:38.707Z,21.00
2019-02-27T07:13:11.774Z,19.12
2019-02-27T07:15:47.917Z,24.40
2019-02-27T07:18:14.158Z,22.42
2019-02-27T07:20:43.085Z,21.05
2019-02-27T07:23:12.864Z,23.27
2019-02-27T07:25:42.755Z,20.72
2019-02-27T07:28:12.075Z,27.95
2019-02-27T07:30:42.488Z,23.02
2019-02-27T07:33:14.316Z,24.43
2019-02-27T07:35:43.314Z,21.05
2019-02-27T07:38:13.828Z,25.70
2019-02-27T07:40:46.090Z,28.25
2019-02-27T07:43:15.194Z,18.40
2019-02-27T07:45:45.397Z,22.48
2019-02-27T07:48:17.377Z,24.50
2019-02-27T07:50:49.112Z,18.73
2019-02-27T07:53:17.661Z,22.73
2019-02-27T07:55:47.513Z,23.50
2019-02-27T07:58:16.742Z,19.62
2019-02-27T08:00:47.104Z,26.77
2019-02-27T08:03:16.474Z,21.40
2019-02-27T08:05:48.552Z,23.22
2019-02-27T08:08:17.573Z,19.32
2019-02-27T08:10:46.538Z,23.87
2019-02-27T08:13:15.966Z,16.00
2019-02-27T08:15:44.905Z,18.57
2019-02-27T08:18:13.900Z,16.87
2019-02-27T08:20:48.153Z,21.95
2019-02-27T08:23:17.176Z,19.00
2019-02-27T08:25:48.328Z,18.80
2019-02-27T08:28:18.822Z,19.27
2019-02-27T08:30:47.786Z,17.53
2019-02-27T08:33:16.818Z,19.13
2019-02-27T08:35:45.889Z,19.77
2019-02-27T08:38:30.370Z,23.10
2019-02-27T08:40:59.642Z,27.03
2019-02-27T08:43:30.446Z,21.60
2019-02-27T08:46:02.134Z,22.37
2019-02-27T08:48:30.073Z,20.00
2019-02-27T08:50:59.096Z,19.83
2019-02-27T08:53:28.113Z,16.87
2019-02-27T08:55:57.157Z,63.52
2019-02-27T08:58:26.747Z,16.63
2019-02-27T09:00:56.961Z,22.47
2019-02-27T09:03:25.861Z,18.80
2019-02-27T09:05:57.080Z,20.87
2019-02-27T09:08:31.859Z,17.73
2019-02-27T09:11:05.550Z,18.00
2019-02-27T09:13:32.590Z,17.20
2019-02-27T09:16:01.554Z,15.13
2019-02-27T09:18:33.308Z,20.73
2019-02-27T09:21:01.205Z,23.67
2019-02-27T09:23:30.290Z,16.57
2019-02-27T09:26:02.334Z,16.03
2019-02-27T09:28:30.087Z,20.37
2019-02-27T09:31:03.300Z,16.40
2019-02-27T09:33:38.347Z,16.60
2019-02-27T09:36:00.715Z,15.93
2019-02-27T09:38:29.770Z,14.70
2019-02-27T09:41:00.582Z,20.43
2019-02-27T09:43:32.668Z,15.17
2019-02-27T09:46:07.602Z,14.97
2019-02-27T09:48:37.022Z,15.20
2019-02-27T09:51:06.085Z,11.97
2019-02-27T09:53:39.824Z,13.33
2019-02-27T09:56:09.104Z,13.80
2019-02-27T09:58:39.152Z,13.83
2019-02-27T10:01:18.397Z,19.50
2019-02-27T10:03:49.006Z,13.73
2019-02-27T10:06:20.801Z,15.03
2019-02-27T10:08:52.825Z,12.83
2019-02-27T10:11:22.436Z,17.93
2019-02-27T10:13:51.610Z,21.63
2019-02-27T10:16:20.588Z,18.00
2019-02-27T10:18:54.788Z,16.43
2019-02-27T10:21:22.135Z,19.30
2019-02-27T10:23:52.360Z,19.67
2019-02-27T10:26:30.388Z,21.53
2019-02-27T10:29:01.665Z,16.40
2019-02-27T10:31:30.764Z,24.90
2019-02-27T10:34:00.444Z,26.00
2019-02-27T10:36:30.177Z,20.83
2019-02-27T10:38:59.386Z,20.80
2019-02-27T10:41:29.877Z,21.83
2019-02-27T10:43:58.912Z,26.00
2019-02-27T10:46:29.349Z,19.13
2019-02-27T10:48:58.383Z,21.10
2019-02-27T10:51:27.444Z,17.13
2019-02-27T10:53:56.406Z,14.73
2019-02-27T10:56:25.522Z,15.27
2019-02-27T10:58:56.785Z,20.00
2019-02-27T11:01:25.813Z,17.47
2019-02-27T11:03:54.849Z,14.17
2019-02-27T11:06:33.929Z,14.60
2019-02-27T11:09:04.485Z,12.70
2019-02-27T11:11:35.105Z,11.10
2019-02-27T11:14:05.595Z,14.47
2019-02-27T11:16:34.689Z,13.03
2019-02-27T11:19:04.042Z,14.80
2019-02-27T11:21:33.342Z,13.60
2019-02-27T11:24:02.460Z,15.77
2019-02-27T11:26:33.884Z,13.03
2019-02-27T11:29:03.416Z,12.03
2019-02-27T11:31:34.005Z,18.73
2019-02-27T11:34:05.142Z,12.67
2019-02-27T11:36:34.933Z,13.03
2019-02-27T11:39:05.952Z,16.30
2019-02-27T11:41:38.029Z,13.70
2019-02-27T11:44:07.176Z,11.30
2019-02-27T11:46:38.989Z,13.00
2019-02-27T11:49:11.737Z,11.13
2019-02-27T11:51:42.945Z,13.23
2019-02-27T11:54:12.050Z,9.93
2019-02-27T11:56:41.017Z,11.90
2019-02-27T11:59:12.559Z,10.40
2019-02-27T12:01:40.874Z,10.80
2019-02-27T12:04:09.800Z,9.40
2019-02-27T12:06:41.367Z,9.40
2019-02-27T12:09:18.467Z,15.87
2019-02-27T12:11:48.698Z,9.97
2019-02-27T12:14:22.779Z,9.43
2019-02-27T12:16:52.517Z,9.47
2019-02-27T12:19:25.074Z,11.47
2019-02-27T12:22:03.596Z,9.43
2019-02-27T12:24:33.923Z,9.90
2019-02-27T12:27:07.162Z,11.07
2019-02-27T12:29:35.922Z,10.60
2019-02-27T12:32:06.173Z,14.17
2019-02-27T12:34:37.068Z,8.33
2019-02-27T12:37:15.125Z,8.53
2019-02-27T12:39:36.774Z,8.80
2019-02-27T12:42:07.002Z,8.73
2019-02-27T12:44:38.911Z,7.93
2019-02-27T12:47:07.931Z,7.60
2019-02-27T12:49:37.491Z,8.43
2019-02-27T12:52:11.190Z,8.57
2019-02-27T12:54:37.334Z,12.00
2019-02-27T12:57:08.683Z,7.20
2019-02-27T12:59:40.059Z,7.03
2019-02-27T13:02:11.145Z,8.30
2019-02-27T13:04:40.131Z,7.20
2019-02-27T13:07:12.938Z,10.53
2019-02-27T13:09:41.979Z,8.83
2019-02-27T13:12:11.043Z,6.80
2019-02-27T13:14:39.970Z,7.10
2019-02-27T13:17:09.022Z,9.50
2019-02-27T13:19:38.498Z,7.90
2019-02-27T13:22:08.185Z,9.80
2019-02-27T13:24:37.294Z,9.93
2019-02-27T13:27:08.780Z,10.50
2019-02-27T13:29:37.046Z,8.00
2019-02-27T13:32:06.106Z,11.60
2019-02-27T13:34:35.050Z,8.10
2019-02-27T13:37:06.898Z,8.77
2019-02-27T13:39:35.353Z,8.93
2019-02-27T13:42:04.442Z,7.80
2019-02-27T13:44:35.215Z,11.60
2019-02-27T13:47:04.338Z,11.43
2019-02-27T13:49:36.554Z,11.47
2019-02-27T13:52:05.581Z,10.40
2019-02-27T13:54:40.335Z,10.97
2019-02-27T13:57:09.322Z,10.47
2019-02-27T13:59:38.561Z,10.30
2019-02-27T14:02:07.591Z,10.10
2019-02-27T14:04:36.686Z,11.63
2019-02-27T14:07:05.652Z,13.30
2019-02-27T14:09:34.605Z,14.03
2019-02-27T14:12:04.267Z,10.70
2019-02-27T14:14:33.437Z,11.00
2019-02-27T14:17:03.387Z,11.47
2019-02-27T14:19:36.586Z,11.30
2019-02-27T14:22:07.490Z,14.83
2019-02-27T14:24:38.221Z,11.67
2019-02-27T14:27:08.893Z,12.60
2019-02-27T14:29:42.364Z,14.23
2019-02-27T14:32:22.478Z,12.53
2019-02-27T14:34:51.511Z,14.57
2019-02-27T14:37:20.544Z,14.03
2019-02-27T14:39:53.793Z,14.57
2019-02-27T14:42:22.741Z,11.50
2019-02-27T14:44:51.878Z,12.17
2019-02-27T14:47:21.866Z,14.53
2019-02-27T14:49:50.924Z,11.80
2019-02-27T14:52:19.885Z,13.80
2019-02-27T14:54:48.889Z,12.23
2019-02-27T14:57:17.953Z,11.27
2019-02-27T14:59:55.857Z,13.10
2019-02-27T15:02:26.997Z,18.60
2019-02-27T15:04:55.998Z,13.97
2019-02-27T15:07:24.934Z,12.13
2019-02-27T15:09:57.125Z,11.47
2019-02-27T15:12:26.156Z,13.97
2019-02-27T15:14:55.209Z,16.33
2019-02-27T15:17:24.157Z,15.50
2019-02-27T15:19:54.195Z,12.07
2019-02-27T15:22:23.213Z,11.70
2019-02-27T15:24:55.431Z,13.33
2019-02-27T15:27:24.989Z,15.17
2019-02-27T15:29:54.629Z,25.73
2019-02-27T15:32:26.910Z,19.03
2019-02-27T15:34:54.615Z,15.47
2019-02-27T15:37:24.667Z,17.03
2019-02-27T15:39:55.779Z,20.50
2019-02-27T15:42:25.795Z,15.30
2019-02-27T15:44:54.748Z,13.60
2019-02-27T15:47:27.012Z,24.90
2019-02-27T15:49:57.562Z,22.67
2019-02-27T15:52:26.522Z,17.73
2019-02-27T15:54:55.552Z,14.70
2019-02-27T15:57:26.139Z,18.47
2019-02-27T15:59:55.106Z,13.10
2019-02-27T16:02:30.422Z,14.87
2019-02-27T16:05:05.839Z,15.00
2019-02-27T16:07:48.471Z,19.67
2019-02-27T16:10:15.912Z,13.63
2019-02-27T16:12:45.017Z,12.50
2019-02-27T16:15:16.893Z,13.50
2019-02-27T16:17:52.493Z,16.93
2019-02-27T16:20:24.978Z,18.37
2019-02-27T16:23:21.286Z,14.70
2019-02-27T16:25:56.367Z,13.63
2019-02-27T16:28:24.748Z,17.60
2019-02-27T16:30:54.811Z,15.57
2019-02-27T16:33:29.077Z,18.40
2019-02-27T16:35:58.108Z,16.70
2019-02-27T16:38:28.334Z,17.67
2019-02-27T16:40:58.000Z,16.27
2019-02-27T16:43:26.997Z,19.17
2019-02-27T16:46:07.705Z,15.17
2019-02-27T16:48:38.671Z,17.77
2019-02-27T16:51:19.956Z,17.10
2019-02-27T16:53:52.682Z,15.23
2019-02-27T16:56:21.859Z,21.90
2019-02-27T16:58:51.095Z,17.50
2019-02-27T17:01:21.175Z,15.20
2019-02-27T17:03:59.462Z,15.80
2019-02-27T17:06:22.068Z,16.23
2019-02-27T17:08:51.173Z,17.97
2019-02-27T17:11:32.533Z,23.30
2019-02-27T17:14:04.274Z,15.33
2019-02-27T17:16:44.526Z,19.50
2019-02-27T17:19:11.642Z,14.13
2019-02-27T17:21:41.738Z,25.70
2019-02-27T17:24:22.009Z,13.30
2019-02-27T17:26:51.141Z,17.60
2019-02-27T17:29:31.771Z,15.73
2019-02-27T17:32:00.906Z,21.27
2019-02-27T17:34:31.915Z,15.33
2019-02-27T17:37:03.613Z,16.07
2019-02-27T17:39:41.023Z,15.57
2019-02-27T17:42:10.119Z,18.00
2019-02-27T17:44:39.246Z,17.70
2019-02-27T17:47:14.101Z,17.63
2019-02-27T17:49:43.150Z,16.77
2019-02-27T17:52:15.514Z,53.13
2019-02-27T17:54:44.477Z,22.80
2019-02-27T17:57:24.192Z,19.43
2019-02-27T18:00:12.890Z,21.27
2019-02-27T18:02:48.366Z,25.43
2019-02-27T18:05:17.407Z,17.53
2019-02-27T18:07:54.365Z,19.40
2019-02-27T18:10:37.275Z,17.50
2019-02-27T18:13:09.438Z,18.30
2019-02-27T18:15:44.702Z,21.83
2019-02-27T18:18:14.765Z,25.03
2019-02-27T18:20:43.839Z,24.45
2019-02-27T18:23:12.891Z,40.03
2019-02-27T18:25:44.168Z,35.92
2019-02-27T18:28:15.763Z,24.47
2019-02-27T18:30:45.463Z,21.73
2019-02-27T18:33:24.110Z,21.20
2019-02-27T18:35:57.582Z,20.57
2019-02-27T18:38:27.820Z,21.70
2019-02-27T18:41:48.931Z,20.05
2019-02-27T18:44:18.119Z,18.90
2019-02-27T18:46:47.262Z,19.20
2019-02-27T18:49:18.521Z,21.63
2019-02-27T18:51:50.264Z,28.65
2019-02-27T18:54:31.520Z,20.05
2019-02-27T18:57:00.534Z,16.37
2019-02-27T18:59:30.994Z,20.10
2019-02-27T19:02:07.737Z,16.40
2019-02-27T19:04:39.050Z,17.87
2019-02-27T19:07:13.657Z,21.42
2019-02-27T19:09:49.547Z,17.48
2019-02-27T19:12:29.713Z,18.67
2019-02-27T19:14:58.739Z,16.40
2019-02-27T19:17:31.414Z,21.47
2019-02-27T19:19:58.424Z,19.42
2019-02-27T19:22:28.610Z,14.67
2019-02-27T19:25:00.125Z,17.50
2019-02-27T19:27:28.629Z,19.17
2019-02-27T19:29:57.812Z,17.70
2019-02-27T19:32:29.049Z,18.48
2019-02-27T19:34:58.296Z,16.70
2019-02-27T19:37:27.576Z,17.57
2019-02-27T19:39:57.116Z,17.52
2019-02-27T19:42:26.322Z,19.57
2019-02-27T19:44:55.382Z,21.77
2019-02-27T19:47:24.465Z,20.45
2019-02-27T19:49:54.362Z,19.25
2019-02-27T19:52:23.425Z,16.93
2019-02-27T19:54:52.931Z,18.73
2019-02-27T19:57:23.165Z,18.32
2019-02-27T20:00:00.521Z,20.30
2019-02-27T20:02:37.723Z,16.32
2019-02-27T20:05:07.329Z,23.18
2019-02-27T20:07:39.182Z,23.35
2019-02-27T20:10:08.902Z,20.48
2019-02-27T20:12:52.914Z,16.07
2019-02-27T20:15:18.550Z,17.63
2019-02-27T20:17:47.966Z,17.00
2019-02-27T20:20:18.096Z,21.73
2019-02-27T20:22:50.342Z,19.33
2019-02-27T20:25:18.610Z,23.70
2019-02-27T20:27:48.883Z,16.77
2019-02-27T20:30:20.049Z,17.67
2019-02-27T20:32:49.150Z,19.62
2019-02-27T20:35:20.788Z,19.00
2019-02-27T20:37:54.145Z,16.05
2019-02-27T20:40:23.181Z,22.25
2019-02-27T20:42:55.094Z,21.10
2019-02-27T20:45:26.697Z,16.60
2019-02-27T20:48:01.724Z,16.45
2019-02-27T20:50:35.776Z,19.70
2019-02-27T20:53:05.522Z,22.87
2019-02-27T20:55:34.634Z,18.77
2019-02-27T20:58:03.756Z,19.55
2019-02-27T21:00:36.115Z,16.87
2019-02-27T21:03:03.629Z,17.95
2019-02-27T21:05:32.699Z,20.02
2019-02-27T21:08:02.520Z,18.23
2019-02-27T21:10:32.873Z,20.92
2019-02-27T21:13:01.989Z,19.60
2019-02-27T21:15:33.559Z,15.98
2019-02-27T21:18:02.738Z,23.05
2019-02-27T21:20:33.278Z,15.07
2019-02-27T21:23:03.574Z,20.33
2019-02-27T21:25:32.734Z,19.55
2019-02-27T21:28:06.751Z,17.43
2019-02-27T21:30:32.551Z,15.68
2019-02-27T21:33:02.629Z,16.87
2019-02-27T21:35:31.763Z,18.57
2019-02-27T21:38:01.474Z,16.10
2019-02-27T21:40:33.353Z,17.43
2019-02-27T21:43:01.827Z,16.87
2019-02-27T21:45:30.942Z,14.73
2019-02-27T21:48:05.846Z,13.90
2019-02-27T21:50:39.931Z,13.87
2019-02-27T21:53:08.857Z,22.20
2019-02-27T21:55:37.808Z,13.30
2019-02-27T21:58:07.889Z,14.50
2019-02-27T22:00:37.950Z,12.83
2019-02-27T22:03:08.032Z,12.90
2019-02-27T22:05:42.765Z,12.23
2019-02-27T22:08:09.024Z,13.83
2019-02-27T22:10:38.150Z,12.70
2019-02-27T22:13:10.469Z,13.20
2019-02-27T22:15:38.085Z,12.00
2019-02-27T22:18:08.324Z,14.73
2019-02-27T22:20:38.016Z,17.93
2019-02-27T22:23:08.070Z,13.78
2019-02-27T22:25:38.170Z,11.68
2019-02-27T22:28:09.301Z,11.97
2019-02-27T22:30:38.608Z,12.47
2019-02-27T22:33:07.685Z,10.77
2019-02-27T22:35:37.962Z,16.33
2019-02-27T22:38:07.625Z,13.93
2019-02-27T22:40:38.002Z,12.97
2019-02-27T22:43:08.462Z,13.25
2019-02-27T22:45:41.983Z,12.50
2019-02-27T22:48:15.043Z,15.08
2019-02-27T22:50:45.180Z,15.73
2019-02-27T22:53:14.500Z,15.73
2019-02-27T22:55:45.610Z,20.43
2019-02-27T22:58:14.710Z,13.83
2019-02-27T23:01:04.773Z,14.53
2019-02-27T23:03:47.206Z,15.13
2019-02-27T23:06:18.345Z,17.50
2019-02-27T23:08:54.422Z,16.85
2019-02-27T23:11:26.171Z,17.42
2019-02-27T23:13:55.282Z,23.75
2019-02-27T23:16:25.370Z,16.97
2019-02-27T23:18:54.465Z,19.80
2019-02-27T23:21:27.353Z,21.33
2019-02-27T23:23:56.564Z,23.12
2019-02-27T23:26:46.736Z,17.27
2019-02-27T23:29:16.881Z,20.20
2019-02-27T23:31:45.942Z,16.80
2019-02-27T23:34:15.084Z,19.87
2019-02-27T23:36:44.181Z,19.27
2019-02-27T23:39:13.249Z,17.30
2019-02-27T23:41:42.265Z,15.80
2019-02-27T23:44:12.367Z,17.75
2019-02-27T23:46:49.758Z,15.88
2019-02-27T23:49:13.306Z,15.63
2019-02-27T23:51:42.297Z,15.65
2019-02-27T23:54:19.553Z,17.77
2019-02-27T23:56:52.981Z,16.75
2019-02-27T23:59:33.005Z,16.82
